Time;durP1;ratioP1;P1;durP2;ratioP2;P2;SDS_P1;SDS_P2;PMS_P1;PMS_P2;Temp;Humidity;BMP_temperature;BMP_pressure;BME280_temperature;BME280_humidity;BME280_pressure;Samples;Min_cycle;Max_cycle;Signal;HPM_P1;HPM_P2
2021/12/30 00:02:04;;;;;;;28.92;15.10;;;21.70;93.80;;;;;;4171479;28;20040;-65
2021/12/30 00:04:09;;;;;;;20.95;13.13;;;21.60;94.00;;;;;;4173102;28;20048;-65
2021/12/30 00:06:14;;;;;;;24.52;13.70;;;21.70;93.80;;;;;;4170610;28;20506;-64
2021/12/30 00:08:18;;;;;;;20.15;12.90;;;21.80;93.80;;;;;;4170468;28;20037;-65
2021/12/30 00:10:23;;;;;;;31.23;13.70;;;21.70;94.00;;;;;;4172884;28;20049;-65
2021/12/30 00:12:27;;;;;;;27.23;14.27;;;21.80;93.90;;;;;;4169991;28;20044;-65
2021/12/30 00:14:32;;;;;;;23.90;12.30;;;21.70;94.10;;;;;;4175829;28;20542;-63
2021/12/30 00:16:36;;;;;;;23.83;12.65;;;21.90;93.90;;;;;;4174475;28;20114;-65
2021/12/30 00:18:41;;;;;;;20.05;11.48;;;22.00;93.70;;;;;;4166162;28;20055;-65
2021/12/30 00:20:45;;;;;;;18.65;11.45;;;22.00;93.50;;;;;;4167924;28;20083;-65
2021/12/30 00:22:50;;;;;;;19.75;11.20;;;22.00;93.60;;;;;;4171166;28;20077;-65
2021/12/30 00:24:54;;;;;;;17.27;11.60;;;22.00;93.70;;;;;;4170978;28;20055;-66
2021/12/30 00:26:59;;;;;;;17.92;11.52;;;21.90;93.70;;;;;;4165870;28;20057;-65
2021/12/30 00:29:04;;;;;;;17.63;10.60;;;21.80;93.80;;;;;;4165921;28;20136;-65
2021/12/30 00:31:21;;;;;;;17.85;10.18;;;21.80;93.80;;;;;;4167757;28;20526;-65
2021/12/30 00:33:27;;;;;;;16.38;9.70;;;22.00;93.60;;;;;;4169859;28;20095;-65
2021/12/30 00:35:32;;;;;;;15.85;11.10;;;22.10;93.40;;;;;;4185319;28;20036;-65
2021/12/30 00:37:37;;;;;;;15.50;11.02;;;22.10;93.20;;;;;;4168788;28;20073;-66
2021/12/30 00:39:41;;;;;;;16.50;11.23;;;22.20;93.30;;;;;;4167190;28;20095;-64
2021/12/30 00:41:46;;;;;;;24.35;14.10;;;22.20;92.90;;;;;;4168076;28;20045;-65
2021/12/30 00:43:50;;;;;;;17.63;11.18;;;22.20;93.40;;;;;;4167241;28;20135;-65
2021/12/30 00:45:55;;;;;;;19.10;11.73;;;22.20;93.10;;;;;;4170377;28;20041;-65
2021/12/30 00:47:59;;;;;;;19.33;10.85;;;22.10;93.10;;;;;;4166083;28;20095;-65
2021/12/30 00:50:04;;;;;;;15.85;8.18;;;22.20;93.10;;;;;;4173900;28;20052;-65
2021/12/30 00:52:09;;;;;;;19.00;8.32;;;22.00;93.00;;;;;;4171176;28;20094;-65
2021/12/30 00:54:13;;;;;;;15.32;8.98;;;21.90;93.30;;;;;;4170669;28;20052;-65
2021/12/30 00:56:18;;;;;;;16.15;8.25;;;22.00;93.60;;;;;;4170752;28;20106;-65
2021/12/30 00:58:22;;;;;;;16.80;9.77;;;22.10;93.30;;;;;;4170742;28;20037;-65
2021/12/30 01:00:27;;;;;;;17.30;9.68;;;22.20;92.80;;;;;;4169737;28;20065;-65
2021/12/30 01:02:32;;;;;;;13.70;8.75;;;22.00;92.60;;;;;;4169515;28;20090;-65
2021/12/30 01:04:36;;;;;;;14.98;8.85;;;21.90;93.00;;;;;;4167561;28;20094;-64
2021/12/30 01:06:41;;;;;;;17.35;8.95;;;22.00;92.70;;;;;;4169352;28;20044;-65
2021/12/30 01:08:49;;;;;;;17.77;9.30;;;22.10;92.90;;;;;;4171007;28;20390;-65
2021/12/30 01:10:54;;;;;;;13.90;9.07;;;22.30;92.70;;;;;;4171057;28;20037;-64
2021/12/30 01:13:05;;;;;;;18.95;8.82;;;22.40;92.50;;;;;;4168671;28;20045;-65
2021/12/30 01:15:11;;;;;;;18.05;8.23;;;22.40;92.40;;;;;;4167750;28;20044;-64
2021/12/30 01:17:24;;;;;;;12.75;8.30;;;22.40;92.30;;;;;;4170334;28;20065;-64
2021/12/30 01:21:45;;;;;;;16.45;7.93;;;22.50;92.30;;;;;;4170686;28;20053;-64
2021/12/30 01:23:49;;;;;;;11.90;6.72;;;22.60;91.80;;;;;;4172482;28;20597;-64
2021/12/30 01:25:55;;;;;;;12.63;6.97;;;22.50;91.90;;;;;;4175335;28;20059;-64
2021/12/30 01:28:00;;;;;;;14.55;7.30;;;22.60;91.90;;;;;;4172459;28;20106;-64
2021/12/30 01:30:06;;;;;;;13.43;7.38;;;22.70;91.90;;;;;;4173685;28;20068;-65
2021/12/30 01:32:11;;;;;;;10.70;7.22;;;22.80;91.70;;;;;;4167681;28;20768;-64
2021/12/30 01:34:15;;;;;;;10.88;7.55;;;22.80;91.50;;;;;;4167935;28;20124;-65
2021/12/30 01:36:21;;;;;;;12.80;7.72;;;22.80;91.50;;;;;;4167678;28;20045;-65
2021/12/30 01:38:25;;;;;;;12.85;7.07;;;22.80;91.20;;;;;;4172650;28;20061;-65
2021/12/30 01:40:30;;;;;;;10.75;6.70;;;22.90;91.20;;;;;;4174112;28;20053;-65
2021/12/30 01:42:35;;;;;;;11.48;6.65;;;22.80;91.00;;;;;;4171459;28;20159;-65
2021/12/30 01:44:40;;;;;;;10.45;7.07;;;22.70;91.50;;;;;;4170223;28;20087;-65
2021/12/30 01:46:45;;;;;;;8.93;5.95;;;22.90;91.60;;;;;;4167922;28;20132;-65
2021/12/30 01:48:49;;;;;;;10.27;6.32;;;23.00;91.40;;;;;;4169529;28;20041;-65
2021/12/30 01:50:54;;;;;;;8.13;5.68;;;23.00;91.30;;;;;;4169760;28;20059;-65
2021/12/30 01:52:58;;;;;;;10.18;5.55;;;23.10;91.10;;;;;;4170609;28;20483;-65
2021/12/30 01:55:03;;;;;;;8.60;5.00;;;23.30;90.90;;;;;;4173161;28;20625;-65
2021/12/30 01:57:08;;;;;;;7.97;5.03;;;23.30;90.40;;;;;;4171687;28;20107;-65
2021/12/30 01:59:12;;;;;;;8.68;5.00;;;23.30;90.20;;;;;;4171631;28;20049;-65
2021/12/30 02:01:20;;;;;;;11.23;5.28;;;23.30;90.10;;;;;;4173134;28;20047;-65
2021/12/30 02:03:25;;;;;;;8.27;4.70;;;23.40;90.10;;;;;;4172151;28;20465;-65
2021/12/30 02:05:30;;;;;;;8.00;4.70;;;23.40;90.00;;;;;;4170768;28;20041;-66
2021/12/30 02:07:34;;;;;;;7.85;4.32;;;23.50;90.20;;;;;;4171219;28;20076;-65
2021/12/30 02:09:38;;;;;;;6.45;4.07;;;23.60;89.80;;;;;;4172250;28;20552;-65
2021/12/30 02:11:43;;;;;;;7.88;4.50;;;23.50;88.40;;;;;;4173247;28;20041;-66
2021/12/30 02:13:49;;;;;;;10.10;4.60;;;23.40;89.00;;;;;;4170705;28;20041;-65
2021/12/30 02:16:00;;;;;;;7.57;4.20;;;23.60;89.00;;;;;;4171281;28;20048;-65
2021/12/30 02:18:04;;;;;;;7.70;4.55;;;23.60;88.30;;;;;;4170033;28;20061;-65
2021/12/30 02:20:12;;;;;;;8.98;5.25;;;23.70;88.40;;;;;;4171407;28;20106;-65
2021/12/30 02:22:17;;;;;;;9.50;5.03;;;23.90;87.60;;;;;;4172073;28;20045;-66
2021/12/30 02:24:22;;;;;;;9.55;5.00;;;23.90;87.10;;;;;;4172636;28;20048;-65
2021/12/30 02:26:26;;;;;;;10.75;4.68;;;23.90;87.20;;;;;;4172691;28;20127;-66
2021/12/30 02:28:32;;;;;;;9.23;4.07;;;23.90;86.50;;;;;;4172246;28;20041;-65
2021/12/30 02:30:36;;;;;;;7.03;3.60;;;24.00;87.00;;;;;;4172769;28;20641;-65
2021/12/30 02:32:42;;;;;;;6.35;3.92;;;24.10;86.40;;;;;;4171111;28;20045;-65
2021/12/30 02:34:46;;;;;;;7.43;3.85;;;24.00;86.20;;;;;;4170603;28;20068;-65
2021/12/30 02:36:50;;;;;;;4.93;3.53;;;24.00;86.30;;;;;;4169444;28;20091;-65
2021/12/30 02:38:55;;;;;;;10.23;3.55;;;24.10;85.80;;;;;;4170180;28;20745;-65
2021/12/30 02:41:00;;;;;;;7.80;3.97;;;24.10;85.70;;;;;;4172699;28;20061;-65
2021/12/30 02:43:06;;;;;;;6.68;3.63;;;24.20;85.60;;;;;;4173485;28;20050;-64
2021/12/30 02:45:10;;;;;;;5.60;3.20;;;24.20;85.50;;;;;;4176049;28;20135;-65
2021/12/30 02:47:15;;;;;;;5.82;3.30;;;24.30;85.50;;;;;;4177146;28;20091;-64
2021/12/30 02:49:20;;;;;;;5.70;2.65;;;24.30;84.80;;;;;;4176771;28;20411;-64
2021/12/30 02:51:25;;;;;;;3.70;2.55;;;24.40;84.70;;;;;;4176302;28;20041;-64
2021/12/30 02:53:29;;;;;;;4.78;3.03;;;24.40;84.50;;;;;;4177797;28;20041;-64
2021/12/30 02:55:33;;;;;;;6.40;3.28;;;24.50;84.60;;;;;;4172204;28;20369;-65
2021/12/30 02:57:38;;;;;;;4.95;2.88;;;24.50;84.50;;;;;;4175336;28;20756;-64
2021/12/30 02:59:44;;;;;;;5.63;3.42;;;24.60;84.50;;;;;;4171337;28;20445;-64
2021/12/30 03:01:49;;;;;;;6.88;3.30;;;24.70;84.10;;;;;;4171147;28;20127;-65
2021/12/30 03:03:57;;;;;;;7.50;3.05;;;24.70;83.80;;;;;;4167707;28;20232;-65
2021/12/30 03:06:04;;;;;;;5.30;3.47;;;24.70;84.00;;;;;;4171926;28;20131;-65
2021/12/30 03:08:12;;;;;;;6.57;3.63;;;24.80;84.60;;;;;;4165959;28;20077;-65
2021/12/30 03:10:21;;;;;;;8.68;3.97;;;24.90;84.20;;;;;;4172895;28;20076;-65
2021/12/30 03:12:26;;;;;;;6.28;4.00;;;24.90;84.00;;;;;;4171506;28;20518;-64
2021/12/30 03:14:30;;;;;;;5.88;4.00;;;24.90;84.00;;;;;;4170957;28;20041;-64
2021/12/30 03:16:41;;;;;;;6.70;4.28;;;25.00;83.50;;;;;;4172372;28;20123;-64
2021/12/30 03:18:46;;;;;;;5.75;3.53;;;25.00;83.40;;;;;;4172814;28;20033;-64
2021/12/30 03:20:50;;;;;;;17.60;4.70;;;25.10;83.20;;;;;;4171267;28;20073;-63
2021/12/30 03:22:55;;;;;;;7.20;3.92;;;25.10;82.80;;;;;;4176246;28;20126;-64
2021/12/30 03:25:01;;;;;;;5.97;3.97;;;25.10;82.60;;;;;;4168907;28;20049;-64
2021/12/30 03:27:06;;;;;;;6.47;3.97;;;25.10;82.80;;;;;;4168320;28;20507;-64
2021/12/30 03:29:10;;;;;;;4.38;3.38;;;25.20;82.80;;;;;;4166166;28;20175;-63
2021/12/30 03:31:16;;;;;;;6.13;2.90;;;25.30;83.00;;;;;;4165852;28;20056;-65
2021/12/30 03:33:20;;;;;;;5.00;2.75;;;25.40;82.30;;;;;;4170736;28;20110;-65
2021/12/30 03:35:24;;;;;;;4.90;2.90;;;25.40;81.90;;;;;;4172314;28;20091;-65
2021/12/30 03:37:29;;;;;;;4.53;2.80;;;25.40;81.90;;;;;;4172624;28;20672;-63
2021/12/30 03:39:34;;;;;;;5.65;3.10;;;25.50;82.60;;;;;;4173536;28;20041;-64
2021/12/30 03:41:38;;;;;;;6.47;3.60;;;25.50;81.50;;;;;;4168402;28;20048;-63
2021/12/30 03:43:43;;;;;;;6.43;3.28;;;25.60;81.50;;;;;;4171123;28;20045;-65
2021/12/30 03:45:48;;;;;;;4.68;3.40;;;25.70;80.90;;;;;;4171355;28;20590;-63
2021/12/30 03:47:52;;;;;;;7.95;4.32;;;25.60;80.90;;;;;;4175105;28;20049;-64
2021/12/30 03:49:57;;;;;;;8.27;4.00;;;25.60;81.30;;;;;;4168693;28;20053;-63
2021/12/30 03:52:01;;;;;;;5.57;3.08;;;25.70;80.50;;;;;;4172684;28;20847;-63
2021/12/30 03:54:06;;;;;;;5.47;2.80;;;25.80;80.40;;;;;;4171444;28;20050;-63
2021/12/30 03:56:12;;;;;;;4.22;3.00;;;25.80;80.70;;;;;;4171980;28;20466;-64
2021/12/30 03:58:18;;;;;;;5.18;3.20;;;25.80;80.90;;;;;;4172794;28;20111;-64
2021/12/30 04:00:23;;;;;;;7.28;3.50;;;25.90;80.90;;;;;;4172745;28;20502;-64
2021/12/30 04:02:27;;;;;;;4.88;2.53;;;25.90;80.70;;;;;;4172217;28;20044;-64
2021/12/30 04:04:32;;;;;;;5.47;3.30;;;25.90;79.90;;;;;;4168303;28;20064;-65
2021/12/30 04:06:36;;;;;;;4.97;3.53;;;25.90;80.20;;;;;;4169750;28;20041;-64
2021/12/30 04:08:41;;;;;;;9.18;4.43;;;26.00;80.80;;;;;;4169607;28;20181;-64
2021/12/30 04:10:45;;;;;;;8.70;4.45;;;26.00;80.20;;;;;;4171423;28;20060;-65
2021/12/30 04:12:50;;;;;;;6.22;3.53;;;26.10;80.40;;;;;;4170437;28;20071;-65
2021/12/30 04:14:54;;;;;;;4.43;3.28;;;26.20;80.40;;;;;;4169744;28;20037;-66
2021/12/30 04:16:59;;;;;;;4.72;3.08;;;26.20;79.80;;;;;;4170191;28;20404;-65
2021/12/30 04:19:04;;;;;;;3.85;2.92;;;26.20;79.80;;;;;;4170180;28;20045;-64
2021/12/30 04:21:08;;;;;;;8.48;3.03;;;26.30;79.70;;;;;;4170687;28;20148;-65
2021/12/30 04:23:13;;;;;;;5.72;3.00;;;26.30;80.20;;;;;;4169508;28;20053;-65
2021/12/30 04:25:18;;;;;;;6.28;2.53;;;26.30;79.80;;;;;;4169669;28;20049;-65
2021/12/30 04:27:22;;;;;;;3.47;2.30;;;26.40;79.20;;;;;;4170169;28;20053;-65
2021/12/30 04:29:26;;;;;;;7.20;3.10;;;26.40;78.90;;;;;;4169674;28;20080;-65
2021/12/30 04:31:32;;;;;;;9.13;2.60;;;26.40;78.00;;;;;;4172817;28;20414;-65
2021/12/30 04:33:36;;;;;;;4.03;1.95;;;26.40;78.40;;;;;;4169189;28;20040;-65
2021/12/30 04:35:40;;;;;;;4.53;1.73;;;26.40;78.70;;;;;;4169690;28;20091;-64
2021/12/30 04:37:45;;;;;;;6.38;2.17;;;26.40;78.60;;;;;;4166554;28;20053;-65
2021/12/30 04:39:49;;;;;;;6.70;2.75;;;26.40;78.40;;;;;;4170493;28;20049;-65
2021/12/30 04:41:53;;;;;;;7.20;3.17;;;26.40;78.10;;;;;;4168800;28;20040;-65
2021/12/30 04:43:58;;;;;;;4.65;3.38;;;26.40;77.90;;;;;;4167809;28;20124;-65
2021/12/30 04:46:03;;;;;;;5.00;2.70;;;26.50;78.10;;;;;;4169603;28;20644;-65
2021/12/30 04:48:07;;;;;;;4.50;2.60;;;26.60;78.40;;;;;;4168978;28;20049;-65
2021/12/30 04:50:12;;;;;;;5.30;2.65;;;26.60;79.00;;;;;;4169790;28;20050;-65
2021/12/30 04:52:17;;;;;;;5.13;2.70;;;26.70;78.50;;;;;;4169434;28;20469;-65
2021/12/30 04:54:21;;;;;;;7.60;2.38;;;26.70;78.00;;;;;;4168546;28;20041;-66
2021/12/30 04:56:25;;;;;;;7.07;2.78;;;26.70;78.00;;;;;;4169795;28;20044;-66
2021/12/30 04:58:30;;;;;;;11.85;3.17;;;26.90;78.90;;;;;;4169361;28;20055;-65
2021/12/30 05:00:34;;;;;;;5.72;2.50;;;27.00;78.50;;;;;;4170851;28;20394;-65
2021/12/30 05:05:04;;;;;;;8.15;2.67;;;26.90;77.40;;;;;;4170612;28;20068;-66
2021/12/30 05:07:08;;;;;;;4.25;2.40;;;27.00;77.90;;;;;;4177503;28;20048;-66
2021/12/30 05:09:12;;;;;;;3.88;2.38;;;27.00;77.80;;;;;;4174384;28;20060;-66
2021/12/30 05:11:16;;;;;;;2.90;1.98;;;27.00;77.80;;;;;;4170098;28;20044;-65
2021/12/30 05:13:21;;;;;;;2.00;1.50;;;27.10;77.20;;;;;;4170392;28;20049;-65
2021/12/30 05:15:25;;;;;;;4.82;1.80;;;27.10;77.20;;;;;;4171065;28;20045;-64
2021/12/30 05:17:30;;;;;;;4.90;1.60;;;27.10;77.10;;;;;;4171254;28;20077;-65
2021/12/30 05:19:34;;;;;;;2.80;1.63;;;27.10;77.10;;;;;;4170132;28;20064;-65
2021/12/30 05:21:39;;;;;;;7.65;1.70;;;27.10;77.20;;;;;;4169338;28;20712;-63
2021/12/30 05:23:43;;;;;;;6.50;3.03;;;27.20;76.70;;;;;;4167776;28;20592;-66
2021/12/30 05:25:47;;;;;;;6.53;3.75;;;27.20;76.80;;;;;;4168109;28;20777;-66
2021/12/30 05:27:52;;;;;;;5.20;3.45;;;27.20;76.80;;;;;;4172662;28;20458;-66
2021/12/30 05:29:56;;;;;;;8.70;3.33;;;27.20;76.10;;;;;;4168538;28;20733;-65
2021/12/30 05:32:02;;;;;;;3.85;2.60;;;27.30;76.60;;;;;;4170335;28;20045;-66
2021/12/30 05:34:09;;;;;;;5.25;2.65;;;27.30;77.20;;;;;;4174132;28;20123;-65
2021/12/30 05:36:14;;;;;;;4.35;2.40;;;27.30;76.60;;;;;;4171753;28;20415;-65
2021/12/30 05:38:18;;;;;;;4.40;3.20;;;27.30;76.80;;;;;;4172639;28;20049;-65
2021/12/30 05:40:23;;;;;;;3.42;2.38;;;27.50;75.80;;;;;;4176357;28;20049;-65
2021/12/30 05:42:27;;;;;;;6.47;3.05;;;27.40;75.90;;;;;;4176408;28;20053;-65
2021/12/30 05:44:32;;;;;;;5.47;3.55;;;27.40;75.70;;;;;;4175694;28;20106;-62
2021/12/30 05:46:36;;;;;;;7.00;3.28;;;27.50;75.90;;;;;;4176008;28;20041;-65
2021/12/30 05:48:40;;;;;;;4.15;3.25;;;27.40;75.70;;;;;;4176741;28;20441;-65
2021/12/30 05:50:45;;;;;;;6.57;2.92;;;27.40;75.90;;;;;;4172619;28;20049;-66
2021/12/30 05:52:49;;;;;;;4.50;3.08;;;27.50;75.90;;;;;;4172046;28;20041;-67
2021/12/30 05:54:54;;;;;;;5.85;2.85;;;27.60;75.50;;;;;;4171097;28;20077;-67
2021/12/30 05:56:58;;;;;;;8.88;4.70;;;27.50;75.30;;;;;;4169843;28;20048;-66
2021/12/30 05:59:02;;;;;;;17.40;10.73;;;27.60;75.80;;;;;;4172196;28;20049;-67
2021/12/30 06:01:07;;;;;;;15.80;9.15;;;27.60;75.40;;;;;;4174566;28;20423;-67
2021/12/30 06:03:11;;;;;;;10.90;4.65;;;27.60;75.40;;;;;;4177960;28;20045;-67
2021/12/30 06:05:16;;;;;;;5.03;2.80;;;27.60;75.30;;;;;;4177521;28;20139;-67
2021/12/30 06:07:20;;;;;;;8.30;2.63;;;27.60;75.10;;;;;;4168706;28;20115;-67
2021/12/30 06:09:26;;;;;;;5.57;2.40;;;27.70;75.50;;;;;;4168491;28;20132;-66
2021/12/30 06:11:30;;;;;;;3.47;2.50;;;27.70;75.90;;;;;;4170982;28;20699;-66
2021/12/30 06:13:34;;;;;;;4.97;2.20;;;27.80;75.60;;;;;;4170335;28;20073;-66
2021/12/30 06:15:39;;;;;;;5.63;3.00;;;27.70;75.30;;;;;;4177325;28;20579;-66
2021/12/30 06:17:43;;;;;;;5.18;3.50;;;27.80;75.60;;;;;;4171882;28;20041;-65
2021/12/30 06:19:48;;;;;;;6.38;4.47;;;27.80;76.10;;;;;;4171148;28;20482;-65
2021/12/30 06:21:52;;;;;;;9.77;3.60;;;27.80;75.30;;;;;;4177158;28;20685;-66
2021/12/30 06:23:56;;;;;;;7.30;4.28;;;27.80;74.90;;;;;;4176734;28;20053;-64
2021/12/30 06:26:01;;;;;;;16.27;13.07;;;27.90;75.20;;;;;;4176572;28;20488;-63
2021/12/30 06:28:05;;;;;;;9.82;7.05;;;28.00;74.90;;;;;;4176582;28;20044;-64
2021/12/30 06:30:10;;;;;;;5.40;3.33;;;28.00;74.90;;;;;;4176655;28;20065;-64
2021/12/30 06:32:14;;;;;;;4.70;2.70;;;27.90;74.20;;;;;;4175572;28;20049;-65
2021/12/30 06:34:18;;;;;;;6.43;2.20;;;27.90;74.20;;;;;;4177863;28;20563;-65
2021/12/30 06:36:23;;;;;;;5.82;2.70;;;27.90;75.10;;;;;;4176971;28;20068;-66
2021/12/30 06:38:27;;;;;;;4.95;2.90;;;28.00;74.40;;;;;;4177491;28;20065;-66
2021/12/30 06:40:32;;;;;;;4.65;2.38;;;28.10;74.60;;;;;;4175919;28;20049;-66
2021/12/30 06:42:38;;;;;;;4.15;2.00;;;28.00;74.40;;;;;;4175791;28;20050;-67
2021/12/30 06:44:42;;;;;;;4.63;2.72;;;28.00;74.50;;;;;;4176552;28;20511;-66
2021/12/30 06:46:55;;;;;;;4.25;2.90;;;28.00;74.60;;;;;;4175371;28;20597;-66
2021/12/30 06:48:59;;;;;;;4.25;2.70;;;28.00;74.70;;;;;;4177614;28;20075;-67
2021/12/30 06:51:05;;;;;;;7.63;2.65;;;28.10;74.80;;;;;;4177106;28;21584;-66
2021/12/30 06:53:10;;;;;;;3.78;1.88;;;28.10;74.20;;;;;;4174605;28;20415;-66
2021/12/30 06:55:14;;;;;;;2.83;1.90;;;28.10;73.80;;;;;;4176123;28;20051;-65
2021/12/30 06:57:19;;;;;;;5.68;1.95;;;28.10;74.00;;;;;;4177579;28;20081;-66
2021/12/30 06:59:23;;;;;;;4.50;1.80;;;28.10;74.10;;;;;;4175306;28;20677;-66
2021/12/30 07:01:31;;;;;;;2.10;1.48;;;28.10;74.10;;;;;;4174495;28;20056;-67
2021/12/30 07:03:37;;;;;;;3.80;1.90;;;28.20;73.70;;;;;;4177249;28;20168;-66
2021/12/30 07:05:41;;;;;;;7.25;1.75;;;28.20;73.70;;;;;;4177076;28;20045;-66
2021/12/30 07:07:45;;;;;;;4.15;1.33;;;28.10;73.60;;;;;;4174163;28;20159;-66
2021/12/30 07:09:51;;;;;;;2.92;1.80;;;28.10;73.90;;;;;;4177702;28;20044;-66
2021/12/30 07:11:55;;;;;;;3.10;1.77;;;28.10;74.20;;;;;;4173270;28;20083;-66
2021/12/30 07:14:00;;;;;;;4.75;1.88;;;28.20;74.20;;;;;;4171016;28;20045;-66
2021/12/30 07:16:05;;;;;;;5.50;2.10;;;28.20;74.30;;;;;;4170982;28;20123;-66
2021/12/30 07:18:09;;;;;;;3.05;2.03;;;28.20;73.80;;;;;;4171431;28;20511;-66
2021/12/30 07:20:14;;;;;;;6.70;1.80;;;28.20;74.00;;;;;;4174931;28;20160;-66
2021/12/30 07:22:18;;;;;;;2.53;1.60;;;28.20;74.00;;;;;;4174734;28;20069;-65
2021/12/30 07:24:42;;;;;;;3.70;1.67;;;28.30;74.60;;;;;;4172014;28;20065;-65
2021/12/30 07:26:47;;;;;;;3.88;1.77;;;28.40;74.00;;;;;;4175001;28;20045;-64
2021/12/30 07:28:51;;;;;;;4.60;1.58;;;28.40;73.50;;;;;;4174685;28;20061;-65
2021/12/30 07:30:56;;;;;;;2.95;1.60;;;28.50;73.30;;;;;;4173277;28;20045;-65
2021/12/30 07:33:05;;;;;;;4.47;1.40;;;28.40;72.70;;;;;;4174938;28;20042;-66
2021/12/30 07:35:10;;;;;;;4.38;1.52;;;28.40;72.80;;;;;;4172266;28;20110;-66
2021/12/30 07:37:14;;;;;;;3.25;1.88;;;28.30;72.80;;;;;;4177936;28;20057;-66
2021/12/30 07:39:19;;;;;;;3.90;2.70;;;28.30;73.00;;;;;;4176016;28;20056;-66
2021/12/30 07:41:24;;;;;;;8.40;4.30;;;28.40;73.00;;;;;;4176238;28;20624;-65
2021/12/30 07:43:29;;;;;;;7.72;3.60;;;28.40;72.80;;;;;;4176547;28;20040;-66
2021/12/30 07:45:33;;;;;;;4.65;2.85;;;28.50;72.80;;;;;;4176259;28;20047;-66
2021/12/30 07:47:38;;;;;;;3.67;2.05;;;28.50;73.30;;;;;;4178544;28;20063;-66
2021/12/30 07:49:43;;;;;;;6.53;1.98;;;28.50;73.00;;;;;;4175442;28;20045;-65
2021/12/30 07:51:47;;;;;;;4.72;2.40;;;28.50;73.10;;;;;;4175224;28;20120;-66
2021/12/30 07:53:52;;;;;;;4.28;3.00;;;28.60;72.70;;;;;;4172615;28;20079;-66
2021/12/30 07:55:57;;;;;;;5.22;2.95;;;28.50;72.40;;;;;;4173593;28;20106;-66
2021/12/30 07:58:01;;;;;;;5.22;2.45;;;28.50;72.50;;;;;;4177813;28;20065;-66
2021/12/30 08:00:08;;;;;;;2.83;2.05;;;28.60;72.80;;;;;;4174855;28;20047;-66
2021/12/30 08:02:16;;;;;;;2.97;2.50;;;28.60;72.60;;;;;;4175321;28;20080;-66
2021/12/30 08:04:20;;;;;;;7.43;2.50;;;28.60;72.10;;;;;;4176940;28;20047;-66
2021/12/30 08:06:27;;;;;;;5.22;2.20;;;28.50;72.60;;;;;;4175313;28;20703;-66
2021/12/30 08:08:32;;;;;;;3.47;2.70;;;28.40;72.80;;;;;;4177482;28;20033;-64
2021/12/30 08:10:36;;;;;;;7.05;2.08;;;28.40;72.80;;;;;;4175656;28;20057;-66
2021/12/30 08:12:42;;;;;;;4.05;1.80;;;28.50;73.10;;;;;;4175814;28;20423;-64
2021/12/30 08:14:46;;;;;;;3.78;1.70;;;28.50;73.00;;;;;;4176285;28;20041;-65
2021/12/30 08:16:50;;;;;;;3.60;2.03;;;28.60;73.20;;;;;;4174636;28;20041;-65
2021/12/30 08:18:55;;;;;;;4.80;1.80;;;28.50;72.60;;;;;;4176290;28;20111;-65
2021/12/30 08:20:59;;;;;;;4.55;2.35;;;28.50;72.70;;;;;;4174173;28;20068;-65
2021/12/30 08:23:04;;;;;;;3.47;2.05;;;28.50;72.70;;;;;;4172868;28;20440;-65
2021/12/30 08:25:10;;;;;;;3.70;2.33;;;28.50;73.10;;;;;;4172664;28;20048;-64
2021/12/30 08:27:14;;;;;;;5.18;1.90;;;28.60;73.00;;;;;;4169550;28;20118;-64
2021/12/30 08:29:21;;;;;;;2.22;1.45;;;28.50;72.60;;;;;;4170875;28;20095;-66
2021/12/30 08:31:25;;;;;;;7.40;1.50;;;28.50;72.60;;;;;;4171505;28;20041;-66
2021/12/30 08:33:32;;;;;;;3.58;1.40;;;28.40;72.80;;;;;;4165724;28;20049;-66
2021/12/30 08:35:37;;;;;;;4.03;1.70;;;28.40;72.90;;;;;;4167502;28;20041;-67
2021/12/30 08:37:41;;;;;;;4.53;2.03;;;28.40;73.00;;;;;;4171182;28;20053;-67
2021/12/30 08:39:45;;;;;;;5.43;2.10;;;28.50;72.70;;;;;;4170265;28;20045;-67
2021/12/30 08:41:50;;;;;;;7.53;2.00;;;28.50;72.80;;;;;;4174793;28;20080;-67
2021/12/30 08:43:55;;;;;;;2.60;1.73;;;28.50;72.70;;;;;;4175523;28;20802;-67
2021/12/30 08:45:59;;;;;;;4.53;1.55;;;28.50;72.50;;;;;;4175673;28;20106;-66
2021/12/30 08:48:04;;;;;;;3.30;1.60;;;28.50;72.60;;;;;;4178107;28;20414;-66
2021/12/30 08:50:11;;;;;;;2.83;1.58;;;28.50;72.80;;;;;;4175946;28;20052;-66
2021/12/30 08:52:16;;;;;;;2.72;1.63;;;28.60;73.10;;;;;;4177888;28;20037;-66
2021/12/30 08:54:20;;;;;;;4.93;1.73;;;28.60;72.50;;;;;;4177578;28;20041;-66
2021/12/30 08:56:25;;;;;;;5.45;1.60;;;28.60;72.70;;;;;;4178970;28;20045;-66
2021/12/30 08:58:29;;;;;;;6.60;1.73;;;28.60;72.10;;;;;;4176281;28;20068;-66
2021/12/30 09:00:41;;;;;;;4.00;1.70;;;28.70;72.50;;;;;;4173556;28;20399;-66
2021/12/30 09:02:46;;;;;;;4.60;1.97;;;28.60;72.70;;;;;;4183912;28;20493;-66
2021/12/30 09:04:51;;;;;;;3.78;1.50;;;28.60;72.30;;;;;;4163604;28;20040;-66
2021/12/30 09:06:55;;;;;;;4.13;1.67;;;28.50;72.40;;;;;;4169346;28;20029;-65
2021/12/30 09:09:02;;;;;;;7.95;1.98;;;28.60;72.70;;;;;;4173973;28;20393;-64
2021/12/30 09:11:07;;;;;;;2.83;1.80;;;28.60;72.70;;;;;;4167994;28;20049;-64
2021/12/30 09:13:11;;;;;;;5.68;3.00;;;28.60;72.70;;;;;;4171036;28;20087;-65
2021/12/30 09:15:16;;;;;;;10.23;2.83;;;28.70;72.70;;;;;;4165800;28;20037;-65
2021/12/30 09:17:20;;;;;;;7.35;3.10;;;28.60;72.40;;;;;;4173483;28;20063;-65
2021/12/30 09:19:25;;;;;;;7.32;2.80;;;28.70;72.80;;;;;;4176730;28;20049;-65
2021/12/30 09:21:30;;;;;;;5.78;2.28;;;28.70;72.70;;;;;;4170668;28;20045;-65
2021/12/30 09:23:34;;;;;;;6.93;2.30;;;28.70;72.60;;;;;;4171691;28;20060;-65
2021/12/30 09:25:41;;;;;;;5.97;3.63;;;28.80;72.50;;;;;;4172812;28;20080;-65
2021/12/30 09:27:46;;;;;;;4.63;2.40;;;28.80;72.70;;;;;;4170831;28;20055;-65
2021/12/30 09:29:50;;;;;;;5.57;2.40;;;28.80;72.60;;;;;;4170794;28;20041;-65
2021/12/30 09:31:55;;;;;;;6.70;2.20;;;28.70;72.50;;;;;;4175487;28;20049;-65
2021/12/30 09:34:00;;;;;;;5.65;2.13;;;28.70;72.70;;;;;;4170013;28;20597;-65
2021/12/30 09:36:04;;;;;;;8.05;2.40;;;28.70;73.40;;;;;;4173793;28;20107;-65
2021/12/30 09:38:09;;;;;;;4.47;2.10;;;28.80;72.70;;;;;;4169243;28;20040;-65
2021/12/30 09:40:14;;;;;;;6.75;2.15;;;28.70;72.60;;;;;;4171487;28;20144;-65
2021/12/30 09:42:19;;;;;;;9.23;3.00;;;28.70;72.60;;;;;;4176609;28;20069;-65
2021/12/30 09:44:24;;;;;;;5.65;1.90;;;28.70;72.60;;;;;;4176754;28;20045;-65
2021/12/30 09:46:28;;;;;;;7.20;2.35;;;28.70;72.70;;;;;;4171947;28;20076;-65
2021/12/30 09:48:33;;;;;;;5.43;2.13;;;28.70;72.20;;;;;;4166051;28;20172;-65
2021/12/30 09:50:41;;;;;;;6.57;2.33;;;28.60;72.10;;;;;;4167935;28;20041;-65
2021/12/30 09:52:45;;;;;;;6.93;2.83;;;28.60;72.30;;;;;;4175081;28;20398;-65
2021/12/30 09:54:50;;;;;;;6.57;2.47;;;28.50;72.60;;;;;;4175828;28;20171;-65
2021/12/30 09:56:54;;;;;;;5.00;2.60;;;28.50;72.70;;;;;;4176345;28;20041;-65
2021/12/30 09:58:58;;;;;;;5.97;2.60;;;28.50;72.80;;;;;;4177319;28;20127;-65
2021/12/30 10:01:05;;;;;;;5.65;2.70;;;28.50;72.70;;;;;;4174511;28;20052;-66
2021/12/30 10:03:09;;;;;;;4.97;2.80;;;28.50;72.90;;;;;;4175878;28;20037;-65
2021/12/30 10:05:18;;;;;;;10.27;2.30;;;28.50;73.00;;;;;;4175101;28;20122;-65
2021/12/30 10:07:22;;;;;;;7.50;2.45;;;28.50;72.90;;;;;;4174469;28;20164;-65
2021/12/30 10:09:50;;;;;;;9.63;2.97;;;28.50;72.90;;;;;;4177402;28;20041;-65
2021/12/30 10:12:00;;;;;;;4.93;2.92;;;28.50;72.90;;;;;;4177132;28;20037;-66
2021/12/30 10:14:05;;;;;;;7.28;2.80;;;28.40;72.90;;;;;;4173782;28;20037;-66
2021/12/30 10:16:14;;;;;;;5.03;2.80;;;28.40;72.90;;;;;;4178208;28;20055;-66
2021/12/30 10:18:18;;;;;;;9.15;2.58;;;28.40;73.00;;;;;;4166072;28;20100;-66
2021/12/30 10:20:27;;;;;;;6.43;2.50;;;28.40;73.00;;;;;;4190408;28;20057;-66
2021/12/30 10:22:31;;;;;;;7.57;2.72;;;28.30;73.20;;;;;;4181202;28;20040;-66
2021/12/30 10:24:35;;;;;;;2.67;2.10;;;28.30;73.90;;;;;;4179888;28;20068;-66
2021/12/30 10:26:55;;;;;;;7.93;2.90;;;28.30;73.80;;;;;;4174975;28;20042;-65
2021/12/30 10:29:02;;;;;;;2.92;2.15;;;28.20;73.60;;;;;;4178384;28;20116;-66
2021/12/30 10:31:19;;;;;;;8.05;2.25;;;28.20;74.00;;;;;;4182573;28;20049;-66
2021/12/30 10:33:25;;;;;;;12.68;3.00;;;28.20;74.10;;;;;;4176164;28;20414;-66
2021/12/30 10:35:30;;;;;;;11.48;2.50;;;28.20;74.20;;;;;;4178284;28;20053;-66
2021/12/30 10:37:36;;;;;;;4.25;2.30;;;28.20;74.10;;;;;;4163394;28;20136;-66
2021/12/30 10:39:42;;;;;;;6.20;2.53;;;28.10;74.20;;;;;;4181747;28;20043;-66
2021/12/30 10:41:47;;;;;;;5.72;2.35;;;28.10;74.30;;;;;;4180485;28;20103;-66
2021/12/30 10:43:54;;;;;;;10.85;3.10;;;28.10;74.40;;;;;;4179766;28;20124;-64
2021/12/30 10:46:19;;;;;;;9.48;2.95;;;28.10;74.40;;;;;;4173845;28;20098;-64
2021/12/30 10:48:23;;;;;;;10.32;3.65;;;28.10;74.40;;;;;;4176474;28;20037;-64
2021/12/30 10:50:28;;;;;;;16.40;4.22;;;28.10;74.60;;;;;;4172552;28;20049;-64
2021/12/30 10:52:33;;;;;;;12.25;4.50;;;28.00;74.60;;;;;;4170835;28;20041;-64
2021/12/30 10:54:39;;;;;;;10.30;4.90;;;28.00;74.70;;;;;;4170616;28;20052;-64